Latest Weather Observations for Moree

IDN60801

Issued at 2:02 pm EST Friday 28 April 2017 (issued every 30 minutes, with the page automatically refreshed every 10 minutes)

About weather observations | Map of weather stations | Latest weather observations for NSW | Other Formats
Station Details ID: 053115 Name: MOREE AERO Lat: -29.49 Lon: 149.85 Height: 213.0 m
Data from the previous 72 hours. | See also: Recent months at Moree
Date/Time
EST
Temp
°C
App
Temp
°C
Dew
Point
°C
Rel
Hum
%
Delta-T
°C
Wind Press
QNH
hPa
Press
MSL
hPa
Rain since
9am
mm
Dir  Spd
km/h
Gust
km/h
Spd
kts
Gust
kts
28/02:00pm 20.8 18.4 8.8 46 6.4 S 11 19 6 10 1018.6 1017.9 0.0
28/01:30pm 20.4 17.5 9.6 50 5.8 S 15 24 8 13 1018.7 1018.0 0.0
28/01:00pm 19.8 17.4 8.8 49 5.8 S 11 20 6 11 1019.1 1018.4 0.0
28/12:30pm 19.3 16.7 7.7 47 6.0 SE 11 20 6 11 1019.4 1018.7 0.0
28/12:00pm 18.3 15.2 7.4 49 5.6 S 13 22 7 12 1019.8 1019.1 0.0
28/11:30am 17.8 14.6 6.7 48 5.6 SSE 13 22 7 12 1020.3 1019.7 0.0
28/11:00am 16.8 13.5 6.3 50 5.2 SSW 13 20 7 11 1020.4 1019.8 0.0
28/10:30am 16.1 12.6 7.1 55 4.5 SSW 15 20 8 11 1020.8 1020.2 0.0
28/10:00am 14.6 10.7 7.2 61 3.7 SSW 17 20 9 11 1020.9 1020.3 0.0
28/09:30am 12.9 8.7 5.8 62 3.4 SSW 17 19 9 10 1021.1 1020.5 0.0
28/09:00am 11.3 6.8 6.2 71 2.4 SSW 19 26 10 14 1021.1 1020.5 0.0
28/08:30am 9.4 5.1 5.4 76 1.8 SSW 17 20 9 11 1020.8 1020.2 0.0
28/08:00am 7.6 3.5 4.4 80 1.4 SW 15 19 8 10 1020.4 1019.8 0.0
28/07:30am 6.0 2.2 3.7 85 1.0 WSW 13 15 7 8 1020.1 1019.5 0.0
28/07:00am 4.8 1.6 3.0 88 0.7 WSW 9 11 5 6 1019.9 1019.2 0.0
28/06:30am 4.4 0.4 2.9 90 0.6 SW 13 15 7 8 1019.6 1018.9 0.0
28/06:00am 4.3 0.7 2.8 90 0.6 SW 11 13 6 7 1019.4 1018.7 0.0
28/05:30am 4.3 0.3 2.8 90 0.6 SW 13 15 7 8 1019.2 1018.5 0.0
28/05:00am 4.5 1.3 2.8 89 0.7 SW 9 11 5 6 1018.9 1018.2 0.0
28/04:30am 4.5 0.9 2.8 89 0.7 SW 11 13 6 7 1018.8 1018.1 0.0
28/04:00am 4.9 0.9 2.9 87 0.8 WSW 13 13 7 7 1018.6 1017.9 0.0
28/03:30am 5.0 1.0 2.9 86 0.9 SW 13 15 7 8 1018.6 1017.9 0.0
28/03:00am 5.1 0.8 3.0 86 0.9 SW 15 19 8 10 1018.6 1017.9 0.0
28/02:30am 5.4 1.0 2.9 84 1.0 WSW 15 17 8 9 1018.6 1017.9 0.0
28/02:00am 5.7 1.8 3.2 84 1.0 SW 13 15 7 8 1018.9 1018.2 0.0
28/01:30am 6.1 2.9 3.1 81 1.3 WSW 9 13 5 7 1019.2 1018.5 0.0
28/01:00am 6.6 2.7 3.2 79 1.4 WSW 13 15 7 8 1019.2 1018.5 0.0
28/12:30am 6.9 3.0 3.3 78 1.5 SW 13 15 7 8 1019.4 1018.7 0.0
28/12:00am 7.6 3.0 3.5 75 1.8 WSW 17 19 9 10 1019.5 1018.8 0.0
 
Date/Time
EST
Temp
°C
App
Temp
°C
Dew
Point
°C
Rel
Hum
%
Delta-T
°C
Wind Press
QNH
hPa
Press
MSL
hPa
Rain since
9am
mm
Dir  Spd
km/h
Gust
km/h
Spd
kts
Gust
kts
27/11:30pm 8.1 3.5 3.6 73 2.0 SW 17 19 9 10 1019.6 1018.9 0.0
27/11:00pm 8.3 3.7 3.8 73 2.0 SW 17 20 9 11 1019.8 1019.1 0.0
27/10:30pm 8.6 4.0 3.8 72 2.1 SW 17 19 9 10 1019.8 1019.1 0.0
27/10:00pm 9.3 4.3 3.5 67 2.5 SW 19 24 10 13 1019.9 1019.2 0.0
27/09:30pm 9.8 4.6 3.3 64 2.9 SW 20 26 11 14 1020.1 1019.5 0.0
27/09:00pm 10.5 4.2 3.5 62 3.1 SW 26 33 14 18 1019.8 1019.1 0.0
27/08:30pm 10.3 5.2 4.0 65 2.8 SW 20 28 11 15 1019.4 1018.7 0.0
27/08:00pm 10.2 5.7 4.1 66 2.7 SW 17 20 9 11 1019.0 1018.3 0.0
27/07:30pm 10.7 6.2 4.0 63 3.0 SW 17 19 9 10 1018.6 1017.9 0.0
27/07:00pm 11.2 6.7 4.0 61 3.2 WSW 17 20 9 11 1018.4 1017.7 0.0
27/06:30pm 11.9 7.4 4.2 59 3.5 WSW 17 19 9 10 1018.0 1017.3 0.0
27/06:00pm 12.8 7.9 4.3 56 3.9 WSW 19 22 10 12 1017.8 1017.1 0.0
27/05:30pm 13.5 8.4 4.1 53 4.3 WSW 20 26 11 14 1017.4 1016.7 0.0
27/05:00pm 14.9 8.3 4.3 49 5.0 WSW 28 35 15 19 1017.1 1016.4 0.0
27/04:30pm 15.3 8.8 4.7 49 5.0 SW 28 35 15 19 1017.0 1016.3 0.0
27/04:00pm 15.1 8.1 4.2 48 5.1 WSW 30 33 16 18 1016.9 1016.2 0.0
27/03:30pm 15.0 8.0 6.0 55 4.4 WSW 32 39 17 21 1016.7 1016.0 0.0
27/03:00pm 14.8 8.4 5.3 53 4.5 WSW 28 33 15 18 1016.5 1015.9 0.0
27/02:30pm 15.5 8.6 4.8 49 5.1 WSW 30 37 16 20 1016.5 1015.9 0.0
27/02:00pm 16.1 10.1 5.4 49 5.2 SW 26 33 14 18 1016.4 1015.8 0.0
27/01:30pm 15.2 9.4 6.2 55 4.4 SW 26 32 14 17 1016.7 1016.0 0.0
27/01:00pm 15.1 8.9 6.1 55 4.4 SW 28 37 15 20 1016.8 1016.1 0.0
27/12:30pm 14.7 9.1 5.5 54 4.4 WSW 24 35 13 19 1017.1 1016.4 0.0
27/12:00pm 14.3 9.6 5.9 57 4.0 WSW 20 30 11 16 1017.4 1016.7 0.0
27/11:30am 13.8 9.5 7.1 64 3.3 SW 19 28 10 15 1017.6 1016.9 0.0
27/11:00am 12.6 7.9 6.2 65 3.1 SW 20 28 11 15 1017.9 1017.2 0.0
27/10:30am 13.2 8.4 7.2 67 2.9 WSW 22 30 12 16 1017.9 1017.2 0.0
27/10:00am 11.9 7.8 6.4 69 2.6 SW 17 22 9 12 1018.0 1017.3 0.0
27/09:30am 11.4 6.8 6.7 73 2.3 SSW 20 26 11 14 1018.3 1017.6 0.0
27/09:00am 10.6 5.3 6.9 78 1.8 SW 24 30 13 16 1018.0 1017.3 0.4
27/08:30am 9.5 3.6 5.9 78 1.7 SW 26 32 14 17 1018.2 1017.5 0.4
27/08:00am 8.7 3.6 6.2 84 1.2 SW 22 28 12 15 1018.0 1017.3 0.4
27/07:30am 7.9 3.8 6.0 88 0.9 SW 17 20 9 11 1017.4 1016.7 0.4
27/07:00am 6.9 3.8 5.4 90 0.7 SW 11 15 6 8 1017.2 1016.5 0.4
27/06:30am 6.6 3.4 5.2 91 0.6 WSW 11 13 6 7 1017.1 1016.4 0.4
27/06:00am 6.8 3.6 5.3 90 0.7 WSW 11 13 6 7 1016.8 1016.1 0.4
27/05:30am 7.0 3.5 5.3 89 0.8 WSW 13 15 7 8 1016.7 1016.0 0.4
27/05:00am 7.4 3.5 5.5 88 0.9 SW 15 17 8 9 1016.2 1015.6 0.4
27/04:30am 7.3 3.4 5.4 88 0.9 SW 15 19 8 10 1016.0 1015.3 0.4
27/04:00am 7.4 3.9 5.4 87 0.9 SW 13 15 7 8 1015.9 1015.2 0.4
27/03:30am 7.6 4.9 5.6 87 0.9 WSW 9 11 5 6 1015.9 1015.2 0.4
27/03:00am 8.1 5.1 5.9 86 1.0 WSW 11 15 6 8 1015.7 1015.0 0.4
27/02:30am 8.5 5.1 6.0 84 1.2 SW 13 17 7 9 1015.7 1015.0 0.4
27/02:00am 8.8 4.7 6.1 83 1.3 SW 17 19 9 10 1015.9 1015.2 0.4
27/01:30am 8.8 5.1 6.1 83 1.3 WSW 15 17 8 9 1016.1 1015.5 0.4
27/01:00am 9.6 5.5 6.3 80 1.5 WSW 17 20 9 11 1016.2 1015.6 0.4
27/12:30am 10.0 6.3 6.5 79 1.7 WSW 15 19 8 10 1016.2 1015.6 0.4
27/12:00am 9.7 6.2 7.1 84 1.2 WSW 15 19 8 10 1016.1 1015.5 0.4
 
Date/Time
EST
Temp
°C
App
Temp
°C
Dew
Point
°C
Rel
Hum
%
Delta-T
°C
Wind Press
QNH
hPa
Press
MSL
hPa
Rain since
9am
mm
Dir  Spd
km/h
Gust
km/h
Spd
kts
Gust
kts
26/11:30pm 9.9 6.9 7.5 85 1.2 W 13 15 7 8 1016.1 1015.5 0.4
26/11:00pm 10.3 7.6 7.5 83 1.4 WSW 11 15 6 8 1016.2 1015.6 0.4
26/10:30pm 10.7 7.7 7.6 81 1.5 SW 13 15 7 8 1015.9 1015.2 0.4
26/10:00pm 11.5 7.7 7.6 77 1.9 SSW 17 22 9 12 1015.8 1015.1 0.4
26/09:30pm 12.2 8.0 7.3 72 2.4 SSW 19 26 10 14 1016.0 1015.3 0.4
26/09:00pm 13.0 7.8 7.2 68 2.8 SSW 24 32 13 17 1015.8 1015.1 0.4
26/08:30pm 13.2 7.6 7.2 67 2.9 SSW 26 32 14 17 1015.6 1014.9 0.4
26/08:00pm 13.3 8.5 7.3 67 3.0 SSW 22 30 12 16 1015.3 1014.6 0.4
26/07:30pm 13.6 7.3 7.4 66 3.1 SSW 30 39 16 21 1014.9 1014.2 0.4
26/07:00pm 14.2 7.7 8.2 67 3.0 SSW 32 39 17 21 1014.3 1013.6 0.4
26/06:30pm 14.9 6.8 8.8 67 3.1 SSW 41 56 22 30 1013.4 1012.7 0.4
26/06:00pm 16.3 8.0 9.3 63 3.7 SW 43 54 23 29 1012.3 1011.6 0.4
26/05:49pm 18.3 12.4 9.1 55 4.9 W 30 54 16 29 1011.9 1011.1 0.4
26/05:30pm 18.8 13.6 8.7 52 5.3 W 26 33 14 18 1010.9 1010.2 0.4
26/05:00pm 19.9 13.6 8.9 49 5.8 W 32 37 17 20 1010.6 1009.9 0.4
26/04:30pm 20.8 13.7 9.7 49 6.0 W 37 50 20 27 1010.3 1009.6 0.4
26/04:00pm 21.7 14.5 9.3 45 6.7 W 37 52 20 28 1010.1 1009.4 0.4
26/03:33pm 22.2 16.1 10.4 47 6.5 W 33 52 18 28 1009.8 1009.1 0.4
26/03:30pm 22.2 16.0 10.0 46 6.7 W 33 39 18 21 1009.9 1009.2 0.4
26/03:00pm 21.6 15.3 11.0 51 5.9 WSW 35 46 19 25 1009.7 1009.0 0.4
26/02:30pm 21.6 15.9 13.0 58 5.0 WSW 35 44 19 24 1009.5 1008.8 0.4
26/02:00pm 22.4 16.1 13.5 57 5.2 W 39 52 21 28 1009.2 1008.5 0.4
26/01:30pm 21.8 16.2 14.4 63 4.4 W 37 48 20 26 1009.2 1008.5 0.4
26/01:00pm 21.7 17.3 15.1 66 4.0 W 32 39 17 21 1009.5 1008.8 0.4
26/12:41pm 20.9 15.6 14.3 66 3.9 WNW 35 46 19 25 1009.8 1009.1 0.4
26/12:30pm 22.5 18.9 16.3 68 3.8 WNW 30 37 16 20 1009.7 1009.0 0.4
26/12:02pm 21.5 18.5 16.9 75 2.8 WNW 28 35 15 19 1010.3 1009.6 0.4
26/12:00pm 21.5 18.9 16.9 75 2.8 WNW 26 33 14 18 1010.3 1009.6 0.4
26/11:30am 20.2 18.1 17.2 83 1.8 WNW 24 30 13 16 1010.9 1010.2 0.4
26/11:00am 19.2 16.8 17.3 89 1.2 WNW 26 32 14 17 1011.3 1010.6 0.4
26/10:30am 18.5 16.4 17.2 92 0.8 WNW 24 32 13 17 1011.7 1011.0 0.2
26/10:00am 18.1 16.6 16.8 92 0.8 NW 20 28 11 15 1012.2 1011.5 0.2
26/09:30am 17.9 16.6 16.8 93 0.7 NNW 19 24 10 13 1012.4 1011.7 0.2
26/09:00am 17.8 16.8 16.7 93 0.7 NW 17 19 9 10 1012.5 1011.8 21.6
26/08:30am 17.6 16.6 16.5 93 0.7 NNW 17 22 9 12 1012.3 1011.6 21.4
26/08:00am 17.5 15.9 16.5 94 0.6 NNW 20 28 11 15 1012.5 1011.8 21.0
26/07:30am 17.3 16.1 16.2 93 0.7 N 17 22 9 12 1012.2 1011.5 20.8
26/07:00am 17.2 17.1 16.1 93 0.7 N 11 15 6 8 1012.4 1011.7 20.4
26/06:30am 17.2 16.4 16.1 93 0.7 N 15 19 8 10 1012.5 1011.8 20.4
26/06:00am 17.1 16.6 16.0 93 0.7 N 13 19 7 10 1011.9 1011.1 20.4
26/05:58am 17.1 16.6 16.0 93 0.7 N 13 19 7 10 1011.9 1011.1 20.4
26/05:40am 17.2 16.8 16.1 93 0.7 N 13 15 7 8 1012.1 1011.3 20.4
26/05:30am 17.2 17.5 16.1 93 0.7 N 9 13 5 7 1011.9 1011.1 20.2
26/05:00am 17.2 17.2 16.2 94 0.6 NNW 11 15 6 8 1012.1 1011.3 20.2
26/04:53am 17.2 17.6 16.2 94 0.6 NNW 9 13 5 7 1012.6 1011.9 20.2
26/04:34am 17.1 17.4 16.0 93 0.7 W 9 13 5 7 1012.3 1011.6 19.6
26/04:30am 17.2 17.5 16.1 93 0.7 NW 9 13 5 7 1012.4 1011.7 18.8
26/04:00am 17.1 16.7 16.1 94 0.6 NNE 13 17 7 9 1012.1 1011.3 18.8
26/03:59am 17.1 16.7 16.1 94 0.6 NNE 13 15 7 8 1012.1 1011.3 18.8
26/03:56am 17.1 16.7 16.1 94 0.6 NNE 13 17 7 9 1012.0 1011.2 18.6
26/03:36am 17.0 17.7 16.0 94 0.6 NW 7 11 4 6 1012.5 1011.8 18.2
26/03:30am 17.0 17.7 16.0 94 0.6 NNW 7 9 4 5 1012.5 1011.8 17.4
26/03:00am 17.0 16.5 15.9 93 0.7 NNW 13 17 7 9 1012.6 1011.9 17.0
26/02:37am 17.0 16.5 15.9 93 0.7 NNW 13 17 7 9 1012.9 1012.2 17.0
26/02:30am 17.0 16.5 15.9 93 0.7 NNW 13 19 7 10 1012.8 1012.1 16.8
26/02:17am 17.1 16.3 16.0 93 0.7 NNW 15 19 8 10 1012.9 1012.2 16.2
26/02:00am 17.1 16.6 16.0 93 0.7 NNW 13 17 7 9 1012.7 1012.0 15.2
26/01:30am 17.2 16.3 15.9 92 0.8 N 15 20 8 11 1012.8 1012.1 14.8
26/01:00am 17.2 16.0 16.1 93 0.7 N 17 20 9 11 1013.0 1012.3 14.8
26/12:30am 17.3 16.1 16.0 92 0.8 N 17 20 9 11 1013.4 1012.7 14.2
26/12:00am 17.4 15.8 15.9 91 0.9 NNW 19 28 10 15 1013.8 1013.1 13.6
 
Date/Time
EST
Temp
°C
App
Temp
°C
Dew
Point
°C
Rel
Hum
%
Delta-T
°C
Wind Press
QNH
hPa
Press
MSL
hPa
Rain since
9am
mm
Dir  Spd
km/h
Gust
km/h
Spd
kts
Gust
kts
25/11:59pm 17.3 15.6 15.8 91 0.9 NNW 19 28 10 15 1013.8 1013.1 13.6
25/11:40pm 17.5 15.2 15.7 89 1.1 NW 22 33 12 18 1014.7 1014.0 12.8
25/11:30pm 17.8 15.6 16.0 89 1.1 NW 22 30 12 16 1014.9 1014.2 11.8
25/11:00pm 18.0 16.5 16.2 89 1.1 NW 19 30 10 16 1014.6 1013.9 11.4
25/10:30pm 18.4 17.3 16.4 88 1.2 NNW 17 24 9 13 1014.9 1014.2 10.8
25/10:00pm 18.6 17.7 16.9 90 1.0 N 17 26 9 14 1014.6 1013.9 10.4
25/09:30pm 18.4 19.2 17.2 93 0.7 N 9 11 5 6 1014.8 1014.1 9.8
25/09:00pm 18.3 19.0 17.0 92 0.8 NNE 9 13 5 7 1014.6 1013.9 9.8
25/08:55pm 18.3 19.4 17.0 92 0.8 NNE 7 11 4 6 1014.9 1014.2 9.8
25/08:30pm 18.5 19.8 17.0 91 0.9 SSW 6 9 3 5 1015.3 1014.6 7.8
25/08:20pm 18.9 18.1 17.2 90 1.0 SW 17 20 9 11 1015.5 1014.8 4.4
25/08:00pm 19.3 19.2 17.8 91 0.9 SW 15 20 8 11 1015.2 1014.5 3.0
25/07:50pm 19.3 20.9 17.8 91 0.9 SSW 6 9 3 5 1014.9 1014.2 3.0
25/07:30pm 19.3 21.9 17.6 90 1.0 CALM 0 0 0 0 1014.8 1014.1 2.8
25/07:27pm 19.4 22.1 17.7 90 1.1 CALM 0 0 0 0 1014.8 1014.1 2.4
25/07:00pm 19.5 21.0 17.6 89 1.2 NW 6 7 3 4 1014.6 1013.9 1.8
25/06:30pm 19.7 20.7 17.7 88 1.2 NNE 9 11 5 6 1014.6 1013.9 1.6
25/06:00pm 19.3 19.5 17.6 90 1.0 NW 13 15 7 8 1014.7 1014.0 1.6
25/05:30pm 19.4 18.3 17.7 90 1.1 W 20 26 11 14 1014.4 1013.7 1.6
25/05:14pm 19.3 16.5 17.4 89 1.2 WSW 28 37 15 20 1013.9 1013.2 1.6
25/05:00pm 19.4 12.4 17.2 87 1.4 WSW 50 78 27 42 1013.5 1012.8 1.2
25/04:55pm 19.6 12.0 16.6 83 1.8 W 52 78 28 42 1013.2 1012.5 0.8
25/04:51pm 20.4 14.9 15.8 75 2.8 WNW 39 78 21 42 1013.2 1012.5 0.2
25/04:46pm 24.6 21.8 14.4 53 6.1 NW 22 63 12 34 1012.9 1012.2 0.0
25/04:30pm 25.9 23.1 13.1 45 7.5 NNW 20 28 11 15 1011.6 1010.9 0.0
25/04:00pm 27.7 23.4 10.9 35 9.6 N 24 32 13 17 1011.3 1010.6 0.0
25/03:30pm 29.0 25.4 12.0 35 10.0 N 22 33 12 18 1011.4 1010.7 0.0
25/03:00pm 28.1 23.9 11.2 35 9.8 N 24 33 13 18 1011.9 1011.1 0.0
25/02:30pm 28.2 24.1 11.3 35 9.8 N 24 30 13 16 1012.2 1011.5 0.0

Other Formats:

Comma delimited format used in spreadsheet applications
http://www.bom.gov.au/fwo/IDN60801/IDN60801.95527.axf

JavaScript Object Notation format (JSON) in row-major order
http://www.bom.gov.au/fwo/IDN60801/IDN60801.95527.json